This is the latest recevied weather packets stored in our database for station/object K2ATL. If no packets are shown the sender has not sent any weather packets the latest 10 day(s).
| Time | Temp. | Humidity | Pressure | Rain* | Wind** | Luminosity | Snow |
|---|---|---|---|---|---|---|---|
| 1777580569 | 16.11° C | 51% | 1097.1 hPa | 0 mm | - | 432 W/m² | - |
| 1777580264 | 16.67° C | 52% | 1097 hPa | 0 mm | - | 374 W/m² | - |
| 1777579962 | 16.67° C | 52% | 1097.1 hPa | 0 mm | - | 362 W/m² | - |
| 1777579657 | 16.67° C | 55% | 1097.2 hPa | 0 mm | - | 401 W/m² | - |
| 1777579356 | 17.22° C | 52% | 1097.2 hPa | 0 mm | - | 350 W/m² | - |
| 1777579051 | 16.11° C | 57% | 1097.1 hPa | 0 mm | - | 450 W/m² | - |
| 1777578747 | 15.56° C | 52% | 1097.2 hPa | 0 mm | - | 438 W/m² | - |
| 1777578446 | 16.67° C | 52% | 1097.2 hPa | 0 mm | - | 417 W/m² | - |
| 1777578142 | 16.67° C | 48% | 1097.2 hPa | 0 mm | - | 492 W/m² | - |
| 1777577838 | 16.11° C | 55% | 1097.3 hPa | 0 mm | - | 487 W/m² | - |
| 1777577534 | 16.67° C | 49% | 1097.5 hPa | 0 mm | - | 418 W/m² | - |
| 1777577231 | 16.67° C | 50% | 1097.3 hPa | 0 mm | - | 426 W/m² | - |
| 1777576927 | 16.67° C | 48% | 1097.3 hPa | 0 mm | - | 540 W/m² | - |
| 1777576623 | 16.67° C | 51% | 1097.4 hPa | 0 mm | - | 500 W/m² | - |
| 1777576318 | 16.67° C | 51% | 1097.3 hPa | 0 mm | - | 619 W/m² | - |
| 1777576014 | 17.22° C | 53% | 1097.3 hPa | 0 mm | - | 604 W/m² | - |
| 1777575711 | 16.67° C | 53% | 1097.1 hPa | 0 mm | - | 721 W/m² | - |
| 1777575407 | 16.67° C | 49% | 1097.1 hPa | 0 mm | - | 813 W/m² | - |
| 1777575103 | 16.67° C | 51% | 1097.2 hPa | 0 mm | - | 700 W/m² | - |
| 1777574798 | 16.67° C | 53% | 1097.1 hPa | 0 mm | - | 725 W/m² | - |
| 1777574497 | 16.11° C | 57% | 1097.1 hPa | 0 mm | - | 573 W/m² | - |
| 1777574192 | 16.67° C | 54% | 1097 hPa | 0 mm | - | 721 W/m² | - |
| 1777573887 | 16.67° C | 56% | 1097.2 hPa | 0 mm | - | 710 W/m² | - |
| 1777573582 | 15.56° C | 58% | 1097.3 hPa | 0 mm | - | 527 W/m² | - |
| 1777573279 | 16.11° C | 56% | 1097.1 hPa | 0 mm | - | 631 W/m² | - |
* Rain latest hour (hover to see other rain measurements)
** Current wind speed in m/s (hover to see current wind gust speed)